Time;durP1;ratioP1;P1;durP2;ratioP2;P2;SDS_P1;SDS_P2;PMS_P1;PMS_P2;Temp;Humidity;BMP_temperature;BMP_pressure;BME280_temperature;BME280_humidity;BME280_pressure;Samples;Min_cycle;Max_cycle;Signal;HPM_P1;HPM_P2
2022/10/15 00:00:20;;;;;;;50.05;25.95;;;;;;;;;;5091367;28;20020;-43
2022/10/15 00:02:45;;;;;;;56.50;27.20;;;;;;;;;;5091361;28;20371;-43
2022/10/15 00:05:10;;;;;;;47.22;25.73;;;;;;;;;;5090984;28;20444;-41
2022/10/15 00:07:36;;;;;;;50.72;26.13;;;;;;;;;;5090995;28;20134;-43
2022/10/15 00:10:01;;;;;;;52.03;26.55;;;;;;;;;;5072741;28;20149;-41
2022/10/15 00:12:27;;;;;;;39.50;23.75;;;;;;;;;;5091156;28;20055;-42
2022/10/15 00:14:52;;;;;;;49.13;26.77;;;;;;;;;;5091506;28;20332;-43
2022/10/15 00:17:18;;;;;;;49.63;26.83;;;;;;;;;;5095114;28;20032;-45
2022/10/15 00:19:43;;;;;;;51.80;26.98;;;;;;;;;;5095305;28;20020;-42
2022/10/15 00:22:08;;;;;;;50.90;28.13;;;;;;;;;;5095070;28;20077;-41
2022/10/15 00:24:35;;;;;;;53.88;27.58;;;;;;;;;;5095047;28;20637;-41
2022/10/15 00:27:00;;;;;;;45.03;24.85;;;;;;;;;;5094918;28;20009;-44
2022/10/15 00:29:25;;;;;;;51.42;26.52;;;;;;;;;;5094999;28;20031;-43
2022/10/15 00:31:51;;;;;;;48.33;25.90;;;;;;;;;;5095202;28;20474;-42
2022/10/15 00:34:16;;;;;;;48.78;26.52;;;;;;;;;;5095378;28;20170;-41
2022/10/15 00:36:41;;;;;;;54.40;27.25;;;;;;;;;;5094851;28;20472;-44
2022/10/15 00:39:07;;;;;;;54.20;26.42;;;;;;;;;;5094270;28;20024;-44
2022/10/15 00:41:34;;;;;;;54.28;27.20;;;;;;;;;;5094543;28;20044;-43
2022/10/15 00:44:00;;;;;;;79.13;29.40;;;;;;;;;;5094519;28;20071;-40
2022/10/15 00:46:30;;;;;;;52.70;25.75;;;;;;;;;;5094875;28;20027;-40
2022/10/15 00:49:10;;;;;;;44.13;24.45;;;;;;;;;;5094506;28;20478;-43
2022/10/15 00:51:35;;;;;;;;;;;;;;;;;;5095052;28;20032;-43
2022/10/15 00:54:00;;;;;;;51.17;25.57;;;;;;;;;;5094442;28;19904;-42
2022/10/15 00:56:26;;;;;;;43.83;25.75;;;;;;;;;;5094057;28;20056;-39
2022/10/15 00:58:52;;;;;;;45.75;25.88;;;;;;;;;;5094659;28;20220;-44
2022/10/15 01:01:18;;;;;;;44.17;23.98;;;;;;;;;;5094365;28;20475;-44
2022/10/15 01:03:43;;;;;;;47.45;26.25;;;;;;;;;;5094068;28;20027;-43
2022/10/15 01:06:08;;;;;;;47.85;25.83;;;;;;;;;;5094047;28;20460;-41
2022/10/15 01:08:34;;;;;;;47.15;26.33;;;;;;;;;;5094182;28;20027;-41
2022/10/15 01:11:02;;;;;;;43.47;24.23;;;;;;;;;;5094521;28;20020;-43
2022/10/15 01:13:27;;;;;;;53.35;25.67;;;;;;;;;;5094544;28;20059;-43
2022/10/15 01:15:54;;;;;;;44.97;23.85;;;;;;;;;;5094576;28;20484;-43
2022/10/15 01:18:23;;;;;;;44.22;24.38;;;;;;;;;;5094521;28;20310;-43
2022/10/15 01:20:48;;;;;;;;;;;;;;;;;;5094918;28;20059;-42
2022/10/15 01:23:26;;;;;;;43.70;24.07;;;;;;;;;;5094592;28;19985;-43
2022/10/15 01:25:54;;;;;;;51.53;25.88;;;;;;;;;;5093378;28;20024;-40
2022/10/15 01:28:28;;;;;;;42.28;24.83;;;;;;;;;;5093004;28;20032;-44
2022/10/15 01:31:14;;;;;;;51.97;25.50;;;;;;;;;;5094073;28;20024;-41
2022/10/15 01:34:08;;;;;;;50.08;25.90;;;;;;;;;;5093032;28;20036;-43
2022/10/15 01:36:42;;;;;;;45.38;24.35;;;;;;;;;;5071435;28;20197;-43
2022/10/15 01:39:19;;;;;;;48.58;23.40;;;;;;;;;;5093665;28;20028;-43
2022/10/15 01:41:51;;;;;;;51.92;25.20;;;;;;;;;;5093364;28;20036;-46
2022/10/15 01:44:18;;;;;;;49.10;25.20;;;;;;;;;;5093425;28;20027;-43
2022/10/15 01:46:45;;;;;;;49.53;26.00;;;;;;;;;;5093079;28;20557;-44
2022/10/15 01:49:12;;;;;;;50.70;26.90;;;;;;;;;;5093812;28;20031;-43
2022/10/15 01:51:39;;;;;;;54.42;24.88;;;;;;;;;;5093180;28;20035;-40
2022/10/15 01:54:05;;;;;;;57.42;24.95;;;;;;;;;;5093515;28;20031;-42
2022/10/15 01:56:31;;;;;;;50.55;27.00;;;;;;;;;;5092988;28;20082;-42
2022/10/15 01:58:57;;;;;;;55.88;26.17;;;;;;;;;;5093256;28;20368;-42
2022/10/15 02:01:22;;;;;;;49.40;25.13;;;;;;;;;;5093411;28;20036;-42
2022/10/15 02:03:49;;;;;;;53.42;26.20;;;;;;;;;;5093127;28;20077;-44
2022/10/15 02:06:35;;;;;;;56.10;26.90;;;;;;;;;;5093513;28;20126;-42
2022/10/15 02:09:06;;;;;;;51.70;26.55;;;;;;;;;;5093338;28;20016;-43
2022/10/15 02:11:38;;;;;;;47.22;25.60;;;;;;;;;;5092858;28;20034;-43
2022/10/15 02:14:14;;;;;;;57.45;29.00;;;;;;;;;;5092936;28;20107;-42
2022/10/15 02:16:46;;;;;;;51.97;28.45;;;;;;;;;;5092348;28;20028;-44
2022/10/15 02:19:19;;;;;;;52.38;27.58;;;;;;;;;;5092772;28;20020;-44
2022/10/15 02:21:46;;;;;;;52.40;25.55;;;;;;;;;;5092636;28;20522;-42
2022/10/15 02:24:34;;;;;;;52.63;26.98;;;;;;;;;;5092412;28;20069;-43
2022/10/15 02:27:01;;;;;;;51.55;27.08;;;;;;;;;;5079251;28;20032;-43
2022/10/15 02:29:27;;;;;;;48.53;24.17;;;;;;;;;;5092561;28;20020;-41
2022/10/15 02:31:54;;;;;;;45.17;24.10;;;;;;;;;;5092918;28;20028;-43
2022/10/15 02:34:21;;;;;;;45.28;24.55;;;;;;;;;;5092726;28;20544;-43
2022/10/15 02:36:47;;;;;;;49.08;24.23;;;;;;;;;;5092346;28;20023;-42
2022/10/15 02:39:25;;;;;;;46.92;24.55;;;;;;;;;;5091837;28;20471;-43
2022/10/15 02:41:52;;;;;;;41.25;23.98;;;;;;;;;;5092523;28;20032;-43
2022/10/15 02:44:17;;;;;;;46.90;25.77;;;;;;;;;;5092545;28;20051;-42
2022/10/15 02:46:43;;;;;;;40.50;23.25;;;;;;;;;;5092621;28;20459;-44
2022/10/15 02:49:08;;;;;;;44.70;24.02;;;;;;;;;;5092271;28;20026;-42
2022/10/15 02:51:34;;;;;;;45.40;25.33;;;;;;;;;;5091836;28;20019;-42
2022/10/15 02:54:01;;;;;;;49.45;24.67;;;;;;;;;;5092895;28;20070;-43
2022/10/15 02:56:26;;;;;;;47.83;25.60;;;;;;;;;;5092272;28;20040;-43
2022/10/15 02:58:51;;;;;;;48.00;26.00;;;;;;;;;;5092251;28;20038;-42
2022/10/15 03:01:17;;;;;;;45.83;25.38;;;;;;;;;;5092089;28;20039;-44
2022/10/15 03:03:42;;;;;;;45.55;25.45;;;;;;;;;;5092100;28;20089;-42
2022/10/15 03:06:07;;;;;;;42.80;23.75;;;;;;;;;;5091528;28;20028;-44
2022/10/15 03:08:33;;;;;;;46.97;24.45;;;;;;;;;;5091954;28;20069;-43
2022/10/15 03:11:00;;;;;;;46.38;24.70;;;;;;;;;;5092061;28;20048;-38
2022/10/15 03:13:25;;;;;;;46.15;25.00;;;;;;;;;;5091950;28;20103;-43
2022/10/15 03:15:51;;;;;;;48.10;24.77;;;;;;;;;;5091366;28;20447;-42
2022/10/15 03:18:16;;;;;;;44.38;23.98;;;;;;;;;;5092220;28;20016;-43
2022/10/15 03:20:41;;;;;;;44.90;25.65;;;;;;;;;;5091646;28;20024;-42
2022/10/15 03:23:07;;;;;;;47.92;24.42;;;;;;;;;;5092592;28;20084;-41
2022/10/15 03:25:32;;;;;;;50.80;25.02;;;;;;;;;;5092095;28;20115;-42
2022/10/15 03:27:57;;;;;;;47.03;24.58;;;;;;;;;;5091462;28;20016;-43
2022/10/15 03:30:23;;;;;;;47.17;24.20;;;;;;;;;;5092105;28;20074;-42
2022/10/15 03:32:48;;;;;;;45.10;23.15;;;;;;;;;;5092402;28;20069;-43
2022/10/15 03:35:14;;;;;;;42.70;23.35;;;;;;;;;;5091421;28;20439;-41
2022/10/15 03:37:39;;;;;;;40.85;22.08;;;;;;;;;;5091096;28;20028;-43
2022/10/15 03:40:04;;;;;;;43.60;24.02;;;;;;;;;;5091429;28;20024;-42
2022/10/15 03:42:30;;;;;;;36.33;21.13;;;;;;;;;;5073160;28;20035;-43
2022/10/15 03:44:55;;;;;;;45.15;22.40;;;;;;;;;;5091762;28;20016;-42
2022/10/15 03:47:20;;;;;;;46.63;24.23;;;;;;;;;;5091267;28;20047;-42
2022/10/15 03:49:46;;;;;;;41.53;22.52;;;;;;;;;;5091078;28;20069;-41
2022/10/15 03:52:11;;;;;;;48.83;24.00;;;;;;;;;;5091058;28;20107;-38
2022/10/15 03:54:36;;;;;;;48.97;24.15;;;;;;;;;;5091352;28;20058;-41
2022/10/15 03:57:02;;;;;;;59.05;29.48;;;;;;;;;;5090971;28;20052;-41
2022/10/15 03:59:27;;;;;;;63.05;28.27;;;;;;;;;;5091667;28;20081;-43
2022/10/15 04:01:53;;;;;;;50.28;26.65;;;;;;;;;;5091148;28;20486;-41
2022/10/15 04:04:18;;;;;;;59.33;29.60;;;;;;;;;;5090590;28;20022;-43
2022/10/15 04:06:46;;;;;;;59.97;29.95;;;;;;;;;;5090752;28;20145;-42
2022/10/15 04:09:12;;;;;;;64.07;31.23;;;;;;;;;;5090960;28;20024;-43
2022/10/15 04:11:37;;;;;;;68.32;32.20;;;;;;;;;;5091605;28;20065;-41
2022/10/15 04:14:02;;;;;;;55.95;30.60;;;;;;;;;;5091478;28;20035;-37
2022/10/15 04:16:28;;;;;;;65.70;31.60;;;;;;;;;;5090979;28;20066;-43
2022/10/15 04:18:53;;;;;;;63.80;30.77;;;;;;;;;;5091270;28;20425;-37
2022/10/15 04:21:20;;;;;;;65.60;30.58;;;;;;;;;;5090135;28;20031;-43
2022/10/15 04:23:45;;;;;;;61.80;31.58;;;;;;;;;;5090696;28;20112;-42
2022/10/15 04:26:10;;;;;;;57.45;29.23;;;;;;;;;;5090829;28;20060;-43
2022/10/15 04:28:36;;;;;;;64.63;29.08;;;;;;;;;;5090396;28;20078;-42
2022/10/15 04:31:01;;;;;;;56.50;28.02;;;;;;;;;;5091148;28;20020;-41
2022/10/15 04:33:27;;;;;;;54.17;27.63;;;;;;;;;;5090916;28;20103;-43
2022/10/15 04:36:02;;;;;;;52.55;28.58;;;;;;;;;;5090517;28;20030;-42
2022/10/15 04:38:28;;;;;;;48.33;26.10;;;;;;;;;;5090886;28;20032;-42
2022/10/15 04:41:00;;;;;;;49.70;26.33;;;;;;;;;;5090635;28;20111;-42
2022/10/15 04:43:26;;;;;;;52.30;26.77;;;;;;;;;;5090995;28;20028;-42
2022/10/15 04:45:54;;;;;;;52.45;27.15;;;;;;;;;;5090829;28;20523;-40
2022/10/15 04:48:19;;;;;;;50.90;24.80;;;;;;;;;;5090847;28;20024;-42
2022/10/15 04:50:44;;;;;;;52.92;24.95;;;;;;;;;;5090680;28;20417;-43
2022/10/15 04:53:10;;;;;;;59.50;24.67;;;;;;;;;;5090852;28;20021;-41
2022/10/15 04:55:35;;;;;;;46.65;25.55;;;;;;;;;;5090300;28;20505;-42
2022/10/15 04:58:00;;;;;;;56.83;25.90;;;;;;;;;;5090780;28;20024;-42
2022/10/15 05:00:25;;;;;;;51.83;25.48;;;;;;;;;;5090994;28;20016;-42
2022/10/15 05:02:51;;;;;;;51.60;27.60;;;;;;;;;;5092230;28;20020;-42
2022/10/15 05:05:16;;;;;;;56.33;27.77;;;;;;;;;;5094347;28;20565;-40
2022/10/15 05:07:41;;;;;;;50.28;25.98;;;;;;;;;;5094711;28;20032;-40
2022/10/15 05:10:07;;;;;;;46.15;24.38;;;;;;;;;;5094839;28;20016;-39
2022/10/15 05:12:32;;;;;;;46.78;25.80;;;;;;;;;;5076391;28;20032;-41
2022/10/15 05:14:57;;;;;;;39.70;23.05;;;;;;;;;;5094261;28;20020;-42
2022/10/15 05:17:23;;;;;;;55.60;23.25;;;;;;;;;;5094503;28;20066;-39
2022/10/15 05:19:48;;;;;;;43.80;23.10;;;;;;;;;;5094271;28;20024;-41
2022/10/15 05:22:13;;;;;;;49.53;24.13;;;;;;;;;;5093963;28;20044;-43
2022/10/15 05:24:39;;;;;;;42.65;22.83;;;;;;;;;;5094104;28;20020;-43
2022/10/15 05:27:04;;;;;;;47.30;24.02;;;;;;;;;;5094203;28;20020;-43
2022/10/15 05:29:29;;;;;;;50.15;23.40;;;;;;;;;;5094258;28;20024;-42
2022/10/15 05:31:55;;;;;;;50.67;24.30;;;;;;;;;;5094566;28;20459;-42
2022/10/15 05:34:20;;;;;;;40.55;22.25;;;;;;;;;;5094026;28;20016;-38
2022/10/15 05:36:45;;;;;;;48.38;24.52;;;;;;;;;;5087947;28;20026;-40
2022/10/15 05:39:11;;;;;;;41.17;22.58;;;;;;;;;;5074289;28;20055;-42
2022/10/15 05:41:36;;;;;;;40.55;22.35;;;;;;;;;;5077950;28;20040;-43
2022/10/15 05:44:01;;;;;;;44.28;22.23;;;;;;;;;;5093748;28;20020;-41
2022/10/15 05:46:27;;;;;;;40.70;22.67;;;;;;;;;;5094038;28;20020;-39
2022/10/15 05:48:53;;;;;;;33.67;20.63;;;;;;;;;;5093783;28;20028;-42
2022/10/15 05:51:19;;;;;;;40.47;21.95;;;;;;;;;;5093545;28;20024;-42
2022/10/15 05:53:47;;;;;;;35.65;21.05;;;;;;;;;;5088976;28;20023;-41
2022/10/15 05:56:13;;;;;;;37.00;21.65;;;;;;;;;;5073456;28;20118;-40
2022/10/15 05:58:38;;;;;;;66.10;20.92;;;;;;;;;;5076031;28;20024;-45
2022/10/15 06:01:05;;;;;;;35.50;20.20;;;;;;;;;;5077784;28;20047;-42
2022/10/15 06:03:30;;;;;;;35.08;17.77;;;;;;;;;;5075331;28;20039;-43
2022/10/15 06:05:56;;;;;;;34.47;19.33;;;;;;;;;;5080280;28;20024;-40
2022/10/15 06:08:21;;;;;;;32.40;17.35;;;;;;;;;;5077482;28;20013;-43
2022/10/15 06:10:47;;;;;;;27.92;17.88;;;;;;;;;;5083211;28;20051;-40
2022/10/15 06:13:13;;;;;;;30.83;17.05;;;;;;;;;;5054494;28;20059;-39
2022/10/15 06:15:42;;;;;;;30.85;18.60;;;;;;;;;;5072402;28;20020;-40
2022/10/15 06:18:08;;;;;;;34.50;17.65;;;;;;;;;;5072860;28;20039;-41
2022/10/15 06:20:34;;;;;;;38.47;17.55;;;;;;;;;;5077025;28;20456;-38
2022/10/15 06:22:59;;;;;;;33.13;17.50;;;;;;;;;;5078880;28;20065;-41
2022/10/15 06:25:25;;;;;;;35.17;16.38;;;;;;;;;;5075966;28;20056;-42
2022/10/15 06:27:50;;;;;;;34.53;18.20;;;;;;;;;;5076352;28;20032;-42
2022/10/15 06:30:16;;;;;;;29.30;16.92;;;;;;;;;;5082015;28;20031;-40
2022/10/15 06:32:51;;;;;;;28.98;16.17;;;;;;;;;;5091922;28;20026;-44
2022/10/15 06:35:17;;;;;;;40.00;16.55;;;;;;;;;;5074722;28;20422;-42
2022/10/15 06:37:42;;;;;;;35.40;16.70;;;;;;;;;;5077620;28;20020;-42
2022/10/15 06:40:08;;;;;;;27.48;15.32;;;;;;;;;;5085776;28;20016;-42
2022/10/15 06:42:34;;;;;;;25.85;15.60;;;;;;;;;;5072180;28;20468;-38
2022/10/15 06:44:59;;;;;;;27.02;16.45;;;;;;;;;;5071341;28;20081;-42
2022/10/15 06:47:24;;;;;;;24.83;15.05;;;;;;;;;;5072335;28;20017;-40
2022/10/15 06:49:49;;;;;;;20.58;13.80;;;;;;;;;;5071279;28;20048;-41
2022/10/15 06:52:15;;;;;;;25.77;14.52;;;;;;;;;;5071686;28;20035;-41
2022/10/15 06:54:40;;;;;;;23.45;14.57;;;;;;;;;;5070449;28;20024;-38
2022/10/15 06:57:05;;;;;;;28.40;14.48;;;;;;;;;;5071268;28;20045;-41
2022/10/15 06:59:31;;;;;;;19.30;12.43;;;;;;;;;;5071496;28;20024;-42
2022/10/15 07:01:56;;;;;;;21.33;13.07;;;;;;;;;;5072439;28;20032;-40
2022/10/15 07:04:22;;;;;;;25.30;13.52;;;;;;;;;;5070674;28;20071;-42
2022/10/15 07:06:47;;;;;;;22.38;13.00;;;;;;;;;;5079124;28;20024;-41
2022/10/15 07:09:13;;;;;;;27.92;13.38;;;;;;;;;;5079217;28;20440;-40
2022/10/15 07:11:38;;;;;;;31.88;13.88;;;;;;;;;;5075764;28;20029;-44
2022/10/15 07:14:03;;;;;;;23.02;13.63;;;;;;;;;;5070807;28;20020;-40
2022/10/15 07:16:29;;;;;;;18.67;12.98;;;;;;;;;;5070525;28;20063;-40
2022/10/15 07:18:54;;;;;;;22.50;12.68;;;;;;;;;;5070422;28;20024;-42
2022/10/15 07:21:19;;;;;;;31.13;12.90;;;;;;;;;;5070898;28;20119;-41
2022/10/15 07:23:45;;;;;;;30.80;12.98;;;;;;;;;;5077000;28;20028;-39
2022/10/15 07:26:11;;;;;;;20.35;12.60;;;;;;;;;;5075530;28;20020;-40
2022/10/15 07:28:36;;;;;;;23.55;12.38;;;;;;;;;;5077031;28;20055;-41
2022/10/15 07:31:03;;;;;;;23.83;12.83;;;;;;;;;;5075455;28;20437;-40
2022/10/15 07:33:28;;;;;;;22.83;12.88;;;;;;;;;;5074071;28;20348;-41
2022/10/15 07:35:53;;;;;;;25.23;12.13;;;;;;;;;;5069880;28;20103;-44
2022/10/15 07:38:19;;;;;;;24.15;12.60;;;;;;;;;;5070852;28;20097;-42
2022/10/15 07:40:44;;;;;;;19.05;11.48;;;;;;;;;;5070672;28;20150;-42
2022/10/15 07:43:09;;;;;;;20.08;10.88;;;;;;;;;;5070502;28;20035;-44
2022/10/15 07:45:34;;;;;;;19.52;11.02;;;;;;;;;;5075670;28;20012;-39
2022/10/15 07:48:00;;;;;;;22.13;11.57;;;;;;;;;;5090842;28;20582;-44
2022/10/15 07:50:25;;;;;;;19.65;12.13;;;;;;;;;;5090178;28;20248;-40
2022/10/15 07:52:50;;;;;;;19.48;10.43;;;;;;;;;;5090779;28;20077;-40
2022/10/15 07:55:16;;;;;;;23.63;11.65;;;;;;;;;;5089760;28;20114;-41
2022/10/15 07:57:41;;;;;;;21.83;11.02;;;;;;;;;;5090685;28;20048;-41
2022/10/15 08:00:07;;;;;;;24.00;12.43;;;;;;;;;;5079419;28;20335;-42
2022/10/15 08:02:32;;;;;;;17.58;10.65;;;;;;;;;;5088038;28;20157;-43
2022/10/15 08:04:58;;;;;;;22.70;10.63;;;;;;;;;;5089208;28;20467;-40
2022/10/15 08:07:23;;;;;;;21.52;10.27;;;;;;;;;;5090815;28;20028;-41
2022/10/15 08:09:48;;;;;;;20.35;9.80;;;;;;;;;;5087606;28;20016;-45
2022/10/15 08:12:14;;;;;;;18.40;9.93;;;;;;;;;;5076532;28;20027;-41
2022/10/15 08:14:39;;;;;;;23.10;10.32;;;;;;;;;;5070609;28;20031;-44
2022/10/15 08:17:04;;;;;;;16.77;9.60;;;;;;;;;;5085994;28;20024;-40
2022/10/15 08:19:30;;;;;;;14.95;9.55;;;;;;;;;;5078675;28;20024;-42
2022/10/15 08:21:56;;;;;;;21.38;9.55;;;;;;;;;;5087699;28;20051;-42
2022/10/15 08:24:22;;;;;;;16.17;9.52;;;;;;;;;;5077537;28;20028;-40
2022/10/15 08:26:48;;;;;;;15.35;9.77;;;;;;;;;;5073691;28;20415;-41
2022/10/15 08:29:13;;;;;;;15.50;9.40;;;;;;;;;;5069876;28;20472;-41
2022/10/15 08:31:39;;;;;;;23.20;9.63;;;;;;;;;;5084042;28;20024;-42
2022/10/15 08:34:04;;;;;;;17.92;9.57;;;;;;;;;;5089975;28;20028;-41
2022/10/15 08:36:30;;;;;;;15.68;8.68;;;;;;;;;;5090860;28;20050;-44
2022/10/15 08:38:56;;;;;;;18.65;8.52;;;;;;;;;;5094251;28;20078;-42
2022/10/15 08:41:24;;;;;;;25.00;8.50;;;;;;;;;;5094449;28;20085;-42
2022/10/15 08:43:50;;;;;;;13.38;8.48;;;;;;;;;;5086246;28;20662;-42
2022/10/15 08:46:17;;;;;;;16.23;7.43;;;;;;;;;;5073326;28;20162;-41
2022/10/15 08:48:47;;;;;;;19.55;7.80;;;;;;;;;;5073486;28;20043;-43
2022/10/15 08:51:15;;;;;;;18.13;7.65;;;;;;;;;;5073652;28;20850;-42
2022/10/15 08:53:49;;;;;;;14.45;8.18;;;;;;;;;;5075041;28;20032;-43
2022/10/15 08:56:25;;;;;;;15.75;7.10;;;;;;;;;;5072556;28;20469;-41
2022/10/15 08:58:56;;;;;;;16.33;7.25;;;;;;;;;;5074547;28;20108;-43
2022/10/15 09:01:29;;;;;;;22.90;8.10;;;;;;;;;;5085682;28;20053;-43
2022/10/15 09:03:54;;;;;;;17.40;8.32;;;;;;;;;;5093675;28;20067;-44
2022/10/15 09:06:20;;;;;;;16.70;7.43;;;;;;;;;;5093031;28;20498;-45
2022/10/15 09:09:00;;;;;;;15.65;8.93;;;;;;;;;;5093267;28;20351;-42
2022/10/15 09:11:36;;;;;;;24.85;9.07;;;;;;;;;;5083697;28;20115;-40
2022/10/15 09:14:03;;;;;;;18.40;8.57;;;;;;;;;;5073006;28;20024;-42
2022/10/15 09:16:32;;;;;;;16.65;8.40;;;;;;;;;;5072821;28;20634;-41
2022/10/15 09:19:00;;;;;;;19.65;8.27;;;;;;;;;;5055562;28;20410;-38
2022/10/15 09:21:25;;;;;;;13.65;9.02;;;;;;;;;;5083864;28;20074;-39
2022/10/15 09:23:53;;;;;;;18.33;9.65;;;;;;;;;;5093334;28;20103;-39
2022/10/15 09:26:19;;;;;;;15.48;8.43;;;;;;;;;;5093089;28;20133;-45
2022/10/15 09:28:53;;;;;;;17.27;7.78;;;;;;;;;;5081438;28;20615;-42
2022/10/15 09:31:22;;;;;;;17.52;8.30;;;;;;;;;;5091019;28;20027;-39
2022/10/15 09:33:58;;;;;;;17.70;7.68;;;;;;;;;;5076001;28;20417;-42
2022/10/15 09:36:39;;;;;;;17.33;6.95;;;;;;;;;;5072235;28;20044;-42
2022/10/15 09:39:13;;;;;;;14.50;6.50;;;;;;;;;;5072091;28;20074;-38
2022/10/15 09:41:41;;;;;;;12.55;7.07;;;;;;;;;;5085891;28;20028;-43
2022/10/15 09:44:10;;;;;;;15.77;6.82;;;;;;;;;;5073618;28;20024;-41
2022/10/15 09:46:42;;;;;;;21.58;8.27;;;;;;;;;;5086518;28;20016;-42
2022/10/15 09:49:10;;;;;;;15.25;8.43;;;;;;;;;;5084188;28;20037;-40
2022/10/15 09:51:48;;;;;;;12.77;6.87;;;;;;;;;;5075955;28;20067;-40
2022/10/15 09:54:29;;;;;;;12.93;7.57;;;;;;;;;;5083381;28;20085;-42
2022/10/15 09:56:55;;;;;;;10.80;7.15;;;;;;;;;;5073325;28;20496;-44
2022/10/15 09:59:21;;;;;;;13.82;6.80;;;;;;;;;;5076971;28;20380;-44
2022/10/15 10:02:25;;;;;;;14.57;7.10;;;;;;;;;;5078630;28;20036;-43
2022/10/15 10:04:51;;;;;;;13.07;6.97;;;;;;;;;;5008616;28;20116;-42
2022/10/15 10:07:28;;;;;;;16.40;7.03;;;;;;;;;;4996508;28;20604;-42
2022/10/15 10:09:54;;;;;;;17.20;6.20;;;;;;;;;;5035297;28;20043;-43
2022/10/15 10:12:40;;;;;;;15.35;6.78;;;;;;;;;;5092134;28;20043;-41
2022/10/15 10:15:25;;;;;;;16.95;5.93;;;;;;;;;;5091550;28;20032;-43
2022/10/15 10:17:52;;;;;;;10.18;5.35;;;;;;;;;;5062050;28;20020;-42
2022/10/15 10:20:19;;;;;;;14.82;5.90;;;;;;;;;;5072994;28;20020;-37
2022/10/15 10:22:49;;;;;;;13.07;7.28;;;;;;;;;;5068942;28;20040;-45
2022/10/15 10:25:33;;;;;;;10.10;6.32;;;;;;;;;;5091727;28;20082;-38
2022/10/15 10:28:01;;;;;;;14.57;5.95;;;;;;;;;;5073945;28;20024;-41
2022/10/15 10:30:31;;;;;;;9.80;6.45;;;;;;;;;;5092677;28;20069;-42
2022/10/15 10:32:58;;;;;;;16.75;5.85;;;;;;;;;;5079208;28;20032;-40
2022/10/15 10:35:24;;;;;;;11.63;5.50;;;;;;;;;;5089006;28;20135;-43
2022/10/15 10:37:51;;;;;;;10.38;5.38;;;;;;;;;;5092156;28;20035;-40
2022/10/15 10:40:22;;;;;;;8.38;5.25;;;;;;;;;;5072351;28;20026;-39
2022/10/15 10:42:47;;;;;;;11.18;5.28;;;;;;;;;;5075723;28;20032;-43
2022/10/15 10:45:21;;;;;;;13.75;6.65;;;;;;;;;;5072249;28;20020;-42
2022/10/15 10:47:46;;;;;;;8.45;6.22;;;;;;;;;;5073008;28;20017;-41
2022/10/15 10:50:29;;;;;;;10.70;5.22;;;;;;;;;;5071632;28;20013;-43
2022/10/15 10:52:55;;;;;;;14.32;6.43;;;;;;;;;;5070820;28;20038;-40
2022/10/15 10:55:23;;;;;;;13.65;5.00;;;;;;;;;;5072139;28;20550;-36
2022/10/15 10:57:51;;;;;;;14.82;5.43;;;;;;;;;;5071942;28;20086;-42
2022/10/15 11:00:24;;;;;;;12.23;5.00;;;;;;;;;;5071228;28;20029;-43
2022/10/15 11:02:50;;;;;;;14.18;5.68;;;;;;;;;;5071540;28;20037;-43
2022/10/15 11:05:18;;;;;;;10.73;5.20;;;;;;;;;;5070639;28;20024;-39
2022/10/15 11:08:16;;;;;;;10.40;5.28;;;;;;;;;;5070090;28;20024;-42
2022/10/15 11:10:41;;;;;;;13.82;5.57;;;;;;;;;;5014110;28;20037;-42
2022/10/15 11:13:06;;;;;;;14.17;5.47;;;;;;;;;;5069770;28;20506;-43
2022/10/15 11:15:50;;;;;;;10.33;5.23;;;;;;;;;;5069172;28;20042;-41
2022/10/15 11:18:18;;;;;;;11.85;5.38;;;;;;;;;;5069979;28;20246;-41
2022/10/15 11:20:51;;;;;;;12.75;5.95;;;;;;;;;;5070819;28;20028;-41
2022/10/15 11:23:28;;;;;;;8.07;5.22;;;;;;;;;;5071496;28;20034;-42
2022/10/15 11:25:54;;;;;;;9.65;5.47;;;;;;;;;;5071180;28;20032;-41
2022/10/15 11:28:22;;;;;;;10.77;4.82;;;;;;;;;;5071381;28;20431;-39
2022/10/15 11:30:56;;;;;;;13.02;5.75;;;;;;;;;;5071641;28;20024;-39
2022/10/15 11:33:21;;;;;;;18.00;5.88;;;;;;;;;;5071547;28;20024;-41
2022/10/15 11:35:47;;;;;;;12.60;5.47;;;;;;;;;;5071750;28;20093;-42
2022/10/15 11:38:24;;;;;;;11.95;5.38;;;;;;;;;;5071218;28;20427;-41
2022/10/15 11:41:01;;;;;;;11.77;5.07;;;;;;;;;;5071190;28;20039;-42
2022/10/15 11:43:45;;;;;;;11.32;5.82;;;;;;;;;;5071460;28;20025;-43
2022/10/15 11:46:20;;;;;;;11.13;5.47;;;;;;;;;;5053468;28;20461;-41
2022/10/15 11:49:01;;;;;;;14.52;5.05;;;;;;;;;;5071110;28;20020;-42
2022/10/15 11:51:45;;;;;;;17.77;6.70;;;;;;;;;;5070965;28;20025;-41
2022/10/15 11:54:29;;;;;;;10.68;5.55;;;;;;;;;;5071480;28;20021;-41
2022/10/15 11:56:56;;;;;;;10.65;5.57;;;;;;;;;;5071329;28;20052;-43
2022/10/15 11:59:24;;;;;;;13.23;5.78;;;;;;;;;;5071042;28;20031;-43
2022/10/15 12:01:52;;;;;;;8.93;5.65;;;;;;;;;;5071589;28;20112;-41
2022/10/15 12:04:23;;;;;;;11.05;6.07;;;;;;;;;;5071298;28;20020;-41
2022/10/15 12:06:50;;;;;;;7.85;5.70;;;;;;;;;;5070882;28;20432;-39
2022/10/15 12:09:20;;;;;;;11.30;5.85;;;;;;;;;;5071361;28;20045;-41
2022/10/15 12:11:52;;;;;;;10.63;5.05;;;;;;;;;;5072488;28;20019;-40
2022/10/15 12:14:20;;;;;;;12.27;5.32;;;;;;;;;;5075380;28;20024;-40
2022/10/15 12:17:01;;;;;;;8.15;5.22;;;;;;;;;;5075015;28;20020;-42
2022/10/15 12:19:46;;;;;;;16.70;6.22;;;;;;;;;;5075055;28;20031;-43
2022/10/15 12:22:12;;;;;;;14.05;6.10;;;;;;;;;;5074590;28;20032;-43
2022/10/15 12:24:37;;;;;;;7.80;5.10;;;;;;;;;;5074891;28;20400;-43
2022/10/15 12:27:17;;;;;;;10.52;5.05;;;;;;;;;;5074816;28;20033;-43
2022/10/15 12:29:47;;;;;;;7.60;4.70;;;;;;;;;;5075115;28;20035;-42
2022/10/15 12:32:38;;;;;;;10.23;4.72;;;;;;;;;;5074906;28;20070;-41
2022/10/15 12:35:06;;;;;;;9.18;4.30;;;;;;;;;;5069948;28;20106;-42
2022/10/15 12:37:33;;;;;;;12.23;4.45;;;;;;;;;;5074341;28;20024;-41
2022/10/15 12:40:04;;;;;;;14.07;4.18;;;;;;;;;;5074849;28;20096;-42
2022/10/15 12:42:31;;;;;;;8.77;4.65;;;;;;;;;;5074546;28;20036;-39
2022/10/15 12:44:58;;;;;;;10.02;4.70;;;;;;;;;;5074401;28;20023;-42
2022/10/15 12:47:43;;;;;;;10.32;4.30;;;;;;;;;;5074600;28;20049;-43
2022/10/15 12:50:15;;;;;;;19.38;4.72;;;;;;;;;;5073905;28;20078;-43
2022/10/15 12:53:00;;;;;;;11.07;4.78;;;;;;;;;;5074231;28;20103;-42
2022/10/15 12:55:30;;;;;;;11.93;4.75;;;;;;;;;;5074115;28;20452;-41
2022/10/15 12:57:56;;;;;;;10.27;4.85;;;;;;;;;;5074610;28;20021;-41
2022/10/15 13:00:22;;;;;;;9.00;4.82;;;;;;;;;;5074718;28;20024;-41
2022/10/15 13:02:47;;;;;;;11.95;5.15;;;;;;;;;;5074455;28;20025;-41
2022/10/15 13:05:27;;;;;;;8.65;4.63;;;;;;;;;;5074251;28;20033;-41
2022/10/15 13:07:52;;;;;;;12.70;5.38;;;;;;;;;;5074358;28;20036;-42
2022/10/15 13:10:20;;;;;;;11.05;4.40;;;;;;;;;;5073633;28;20028;-42
2022/10/15 13:12:50;;;;;;;11.70;4.53;;;;;;;;;;5073941;28;20424;-42
2022/10/15 13:15:15;;;;;;;10.48;4.57;;;;;;;;;;5073627;28;20031;-42
2022/10/15 13:17:41;;;;;;;11.48;5.05;;;;;;;;;;5074466;28;20380;-44
2022/10/15 13:20:24;;;;;;;7.22;4.88;;;;;;;;;;5074028;28;20023;-43
2022/10/15 13:22:50;;;;;;;11.00;4.70;;;;;;;;;;5072501;28;20032;-44
2022/10/15 13:25:15;;;;;;;10.15;4.75;;;;;;;;;;5073896;28;20016;-40
2022/10/15 13:27:41;;;;;;;14.25;5.65;;;;;;;;;;5073882;28;20031;-41
2022/10/15 13:30:12;;;;;;;15.32;5.38;;;;;;;;;;5073591;28;20052;-38
2022/10/15 13:32:46;;;;;;;8.40;4.95;;;;;;;;;;5073923;28;20414;-42
2022/10/15 13:35:16;;;;;;;15.30;5.22;;;;;;;;;;5073068;28;20025;-41
2022/10/15 13:37:42;;;;;;;8.07;5.05;;;;;;;;;;5073805;28;20020;-41
2022/10/15 13:40:07;;;;;;;10.27;4.80;;;;;;;;;;5073510;28;20093;-41
2022/10/15 13:42:32;;;;;;;12.25;4.88;;;;;;;;;;5073317;28;20032;-41
2022/10/15 13:45:18;;;;;;;11.05;4.93;;;;;;;;;;5073508;28;20035;-42
2022/10/15 13:47:48;;;;;;;11.38;4.53;;;;;;;;;;5072571;28;20115;-41
2022/10/15 13:50:19;;;;;;;12.50;4.85;;;;;;;;;;5073203;28;20060;-39
2022/10/15 13:52:47;;;;;;;16.50;4.95;;;;;;;;;;5073332;28;20025;-43
2022/10/15 13:55:16;;;;;;;11.45;5.40;;;;;;;;;;5073365;28;20020;-41
2022/10/15 13:57:42;;;;;;;;;;;;;;;;;;5073772;28;20155;-42
2022/10/15 14:00:17;;;;;;;15.73;5.13;;;;;;;;;;5073525;28;20651;-36
2022/10/15 14:02:43;;;;;;;7.80;5.32;;;;;;;;;;5072751;28;20199;-44
2022/10/15 14:05:15;;;;;;;10.63;5.90;;;;;;;;;;5073101;28;20129;-41
2022/10/15 14:07:40;;;;;;;9.30;5.53;;;;;;;;;;5072998;28;20547;-40
2022/10/15 14:10:07;;;;;;;14.80;5.72;;;;;;;;;;5073200;28;20104;-42
2022/10/15 14:12:32;;;;;;;11.55;5.47;;;;;;;;;;5073112;28;20021;-42
2022/10/15 14:15:18;;;;;;;11.75;5.32;;;;;;;;;;5072288;28;20020;-43
2022/10/15 14:17:48;;;;;;;13.52;5.60;;;;;;;;;;5073142;28;20072;-40
2022/10/15 14:20:17;;;;;;;8.88;5.82;;;;;;;;;;5072671;28;20062;-41
2022/10/15 14:22:47;;;;;;;10.73;5.82;;;;;;;;;;5072541;28;20124;-43
2022/10/15 14:25:19;;;;;;;11.40;6.30;;;;;;;;;;5072428;28;20024;-41
2022/10/15 14:27:44;;;;;;;12.02;6.47;;;;;;;;;;5072175;28;20028;-43
2022/10/15 14:30:14;;;;;;;15.52;6.88;;;;;;;;;;5072524;28;20171;-41